Time;durP1;ratioP1;P1;durP2;ratioP2;P2;SDS_P1;SDS_P2;PMS_P1;PMS_P2;Temp;Humidity;BMP_temperature;BMP_pressure;BME280_temperature;BME280_humidity;BME280_pressure;Samples;Min_cycle;Max_cycle;Signal;HPM_P1;HPM_P2
2023/02/20 00:00:21;;;;;;;27.15;13.27;;;;;;;4.05;100.00;102444.22;5083262;28;20119;-75
2023/02/20 00:02:47;;;;;;;25.65;12.98;;;;;;;4.09;100.00;102452.34;5082975;28;20112;-75
2023/02/20 00:05:13;;;;;;;25.15;13.02;;;;;;;4.02;100.00;102450.19;5082776;28;20039;-78
2023/02/20 00:07:39;;;;;;;25.88;13.98;;;;;;;3.99;100.00;102468.31;5082567;28;20027;-75
2023/02/20 00:10:05;;;;;;;26.63;13.50;;;;;;;4.03;100.00;102459.81;5081667;28;20032;-75
2023/02/20 00:12:31;;;;;;;26.35;12.85;;;;;;;4.02;100.00;102460.66;5084628;28;20028;-75
2023/02/20 00:14:57;;;;;;;25.60;13.35;;;;;;;4.01;100.00;102453.63;5081136;28;20029;-79
2023/02/20 00:17:22;;;;;;;25.77;13.55;;;;;;;3.98;100.00;102454.34;5082856;28;20078;-77
2023/02/20 00:19:47;;;;;;;25.38;13.45;;;;;;;3.97;100.00;102438.56;5082401;28;20435;-74
2023/02/20 00:22:13;;;;;;;26.88;13.70;;;;;;;3.89;100.00;102437.19;5083031;28;20035;-79
2023/02/20 00:24:38;;;;;;;26.10;14.02;;;;;;;3.95;100.00;102437.56;5083705;28;20111;-75
2023/02/20 00:27:04;;;;;;;26.92;14.25;;;;;;;4.01;100.00;102428.34;5081107;28;20067;-75
2023/02/20 00:29:29;;;;;;;27.27;14.38;;;;;;;3.95;100.00;102424.50;5084616;28;20425;-77
2023/02/20 00:31:56;;;;;;;27.65;14.32;;;;;;;4.00;100.00;102420.41;5081317;28;20035;-80
2023/02/20 00:34:24;;;;;;;28.30;15.13;;;;;;;4.02;100.00;102413.56;5083538;28;20031;-74
2023/02/20 00:36:50;;;;;;;27.83;15.07;;;;;;;3.99;100.00;102406.44;5082073;28;20028;-75
2023/02/20 00:39:15;;;;;;;28.02;15.00;;;;;;;4.00;100.00;102404.69;5082511;28;20494;-78
2023/02/20 00:41:41;;;;;;;27.00;14.52;;;;;;;4.07;100.00;102401.59;5081867;28;20421;-75
2023/02/20 00:44:06;;;;;;;28.27;14.93;;;;;;;4.09;100.00;102396.47;5081445;28;20021;-75
2023/02/20 00:46:31;;;;;;;28.58;14.10;;;;;;;4.05;100.00;102389.25;5084311;28;20034;-75
2023/02/20 00:48:57;;;;;;;27.20;14.77;;;;;;;4.07;100.00;102388.53;5080814;28;20039;-80
2023/02/20 00:51:22;;;;;;;28.05;14.68;;;;;;;4.08;100.00;102372.00;5083921;28;20032;-75
2023/02/20 00:53:48;;;;;;;28.13;14.55;;;;;;;4.13;100.00;102375.75;5082120;28;20111;-77
2023/02/20 00:56:13;;;;;;;26.35;14.43;;;;;;;4.09;100.00;102379.06;5081972;28;20048;-75
2023/02/20 00:58:38;;;;;;;27.70;14.25;;;;;;;4.07;100.00;102380.66;5083505;28;20042;-80
2023/02/20 01:01:04;;;;;;;27.13;14.77;;;;;;;4.04;100.00;102364.81;5080710;28;20079;-76
2023/02/20 01:03:29;;;;;;;28.33;15.20;;;;;;;4.06;100.00;102365.78;5084330;28;20487;-75
2023/02/20 01:05:55;;;;;;;26.75;13.75;;;;;;;4.05;100.00;102366.63;5081006;28;20031;-75
2023/02/20 01:08:20;;;;;;;28.40;15.32;;;;;;;4.05;100.00;102365.69;5085545;28;20032;-75
2023/02/20 01:10:45;;;;;;;27.58;15.35;;;;;;;4.01;100.00;102369.88;5085237;28;20028;-79
2023/02/20 01:13:11;;;;;;;28.67;15.20;;;;;;;3.97;100.00;102362.66;5085891;28;20071;-79
2023/02/20 01:15:36;;;;;;;28.55;15.25;;;;;;;3.90;100.00;102365.75;5087484;28;20459;-75
2023/02/20 01:18:04;;;;;;;27.90;14.68;;;;;;;3.83;100.00;102377.59;5084654;28;20467;-80
2023/02/20 01:20:30;;;;;;;29.35;15.45;;;;;;;3.83;100.00;102375.00;5084452;28;20032;-76
2023/02/20 01:22:55;;;;;;;28.13;15.35;;;;;;;3.84;100.00;102388.16;5087736;28;20032;-76
2023/02/20 01:25:20;;;;;;;29.02;15.30;;;;;;;3.83;100.00;102380.22;5085414;28;20065;-75
2023/02/20 01:27:46;;;;;;;29.70;16.75;;;;;;;3.85;100.00;102373.34;5086119;28;20115;-74
2023/02/20 01:30:11;;;;;;;30.02;15.65;;;;;;;3.82;100.00;102376.69;5086577;28;20027;-75
2023/02/20 01:32:37;;;;;;;28.80;15.32;;;;;;;3.79;100.00;102373.91;5084894;28;20071;-80
2023/02/20 01:35:02;;;;;;;28.42;16.00;;;;;;;3.74;100.00;102375.38;5087659;28;20376;-76
2023/02/20 01:37:28;;;;;;;29.13;15.45;;;;;;;3.71;100.00;102367.31;5084116;28;20108;-74
2023/02/20 01:39:53;;;;;;;28.20;15.73;;;;;;;3.79;100.00;102366.06;5086859;28;20036;-75
2023/02/20 01:42:24;;;;;;;30.02;15.50;;;;;;;3.82;100.00;102363.59;5085404;28;20039;-76
2023/02/20 01:44:50;;;;;;;30.58;15.88;;;;;;;3.78;100.00;102360.72;5086177;28;20033;-75
2023/02/20 01:47:18;;;;;;;29.75;15.80;;;;;;;3.77;100.00;102365.06;5086005;28;20086;-75
2023/02/20 01:49:49;;;;;;;28.67;15.07;;;;;;;3.79;100.00;102357.31;5085246;28;20111;-76
2023/02/20 01:52:37;;;;;;;28.75;15.43;;;;;;;3.75;100.00;102351.00;5085605;28;20036;-75
2023/02/20 01:55:08;;;;;;;32.28;16.40;;;;;;;3.76;100.00;102341.44;5083635;28;20356;-75
2023/02/20 01:57:37;;;;;;;29.30;15.95;;;;;;;3.78;100.00;102331.97;5083942;28;20063;-77
2023/02/20 02:00:08;;;;;;;30.35;17.05;;;;;;;3.73;100.00;102336.00;5087165;28;20486;-75
2023/02/20 02:02:36;;;;;;;32.30;16.17;;;;;;;3.75;100.00;102303.00;5083790;28;20039;-76
2023/02/20 02:05:02;;;;;;;30.88;16.25;;;;;;;3.76;100.00;102307.44;5087217;28;20032;-76
2023/02/20 02:07:28;;;;;;;31.15;16.58;;;;;;;3.69;100.00;102307.91;5083824;28;20036;-80
2023/02/20 02:10:08;;;;;;;30.52;16.75;;;;;;;3.69;100.00;102302.69;5086514;28;20037;-80
2023/02/20 02:12:35;;;;;;;31.05;17.33;;;;;;;3.67;100.00;102285.19;5083633;28;20078;-76
2023/02/20 02:15:00;;;;;;;31.90;17.45;;;;;;;3.69;100.00;102279.13;5087547;28;20111;-83
2023/02/20 02:18:07;;;;;;;30.40;16.50;;;;;;;3.79;100.00;102268.38;5083778;28;20024;-80
2023/02/20 02:20:54;;;;;;;31.42;17.50;;;;;;;3.76;100.00;102263.84;5085238;28;20028;-79
2023/02/20 02:23:19;;;;;;;34.47;17.73;;;;;;;3.74;100.00;102259.34;5085551;28;20530;-77
2023/02/20 02:26:05;;;;;;;32.47;18.25;;;;;;;3.75;100.00;102259.44;5085402;28;20082;-83
2023/02/20 02:29:07;;;;;;;35.92;20.58;;;;;;;3.81;100.00;102279.81;5083556;28;20419;-80
2023/02/20 02:31:51;;;;;;;34.88;20.58;;;;;;;3.81;100.00;102292.88;5083272;28;20066;-84
2023/02/20 02:34:31;;;;;;;37.25;21.10;;;;;;;3.78;100.00;102280.53;5085084;28;20038;-75
2023/02/20 02:37:36;;;;;;;37.72;22.00;;;;;;;3.79;100.00;102258.78;5083703;28;20475;-81
2023/02/20 02:40:18;;;;;;;36.95;21.70;;;;;;;3.77;100.00;102256.91;5082925;28;20070;-79
2023/02/20 02:43:08;;;;;;;39.13;22.98;;;;;;;3.75;100.00;102267.28;5084368;28;20527;-83
2023/02/20 02:45:57;;;;;;;38.70;23.58;;;;;;;3.70;100.00;102253.06;5085719;28;20035;-77
2023/02/20 02:48:34;;;;;;;38.15;22.55;;;;;;;3.70;100.00;102262.59;5085258;28;20479;-81
2023/02/20 02:51:10;;;;;;;37.97;23.90;;;;;;;3.70;100.00;102258.28;5082798;28;20111;-78
2023/02/20 02:53:36;;;;;;;40.35;24.63;;;;;;;3.66;100.00;102254.59;5083034;28;20031;-77
2023/02/20 02:56:20;;;;;;;41.13;24.63;;;;;;;3.71;100.00;102251.34;5086247;28;20398;-81
2023/02/20 02:58:53;;;;;;;43.45;26.83;;;;;;;3.75;100.00;102246.34;5084417;28;20033;-78
2023/02/20 03:01:20;;;;;;;44.08;26.95;;;;;;;3.82;100.00;102240.63;5084254;28;20378;-78
2023/02/20 03:03:47;;;;;;;44.67;28.30;;;;;;;3.88;100.00;102236.56;5084230;28;20024;-82
2023/02/20 03:06:22;;;;;;;43.55;28.20;;;;;;;3.90;100.00;102240.16;5084976;28;20403;-75
2023/02/20 03:09:18;;;;;;;42.55;27.92;;;;;;;4.04;100.00;102220.88;5084367;28;20021;-75
2023/02/20 03:11:45;;;;;;;42.10;28.05;;;;;;;4.08;100.00;102227.16;5083940;28;20032;-75
2023/02/20 03:17:30;;;;;;;41.85;26.88;;;;;;;4.12;100.00;102226.50;5085136;28;20430;-75
2023/02/20 03:20:03;;;;;;;44.75;28.00;;;;;;;4.13;100.00;102221.34;5082793;28;20025;-77
2023/02/20 03:22:38;;;;;;;44.35;27.73;;;;;;;4.17;100.00;102225.91;5085658;28;20085;-79
2023/02/20 03:25:12;;;;;;;46.90;29.63;;;;;;;4.17;100.00;102222.41;5082087;28;20025;-75
2023/02/20 03:27:50;;;;;;;43.95;28.10;;;;;;;4.20;100.00;102227.81;5082390;28;20031;-79
2023/02/20 03:30:44;;;;;;;44.88;28.90;;;;;;;4.24;100.00;102221.91;5083437;28;20089;-76
2023/02/20 03:44:25;;;;;;;40.50;24.83;;;;;;;4.41;100.00;102232.34;5082617;28;20043;-77
2023/02/20 03:46:54;;;;;;;43.25;26.38;;;;;;;4.37;100.00;102223.47;5083716;28;20021;-75
2023/02/20 03:49:24;;;;;;;40.63;25.45;;;;;;;4.39;100.00;102220.91;5083263;28;20483;-76
2023/02/20 03:51:50;;;;;;;40.60;25.73;;;;;;;4.43;100.00;102220.25;5083610;28;20029;-75
2023/02/20 03:54:15;;;;;;;40.65;25.25;;;;;;;4.44;100.00;102217.72;5083537;28;20414;-79
2023/02/20 03:56:51;;;;;;;40.97;25.23;;;;;;;4.42;100.00;102206.25;5082222;28;20053;-77
2023/02/20 03:59:25;;;;;;;44.03;25.33;;;;;;;4.39;100.00;102211.34;5083423;28;20062;-75
2023/02/20 04:01:59;;;;;;;40.83;25.02;;;;;;;4.39;100.00;102206.09;5083697;28;20041;-76
2023/02/20 04:04:33;;;;;;;39.05;24.67;;;;;;;4.35;100.00;102210.28;5081982;28;20498;-76
2023/02/20 04:07:03;;;;;;;40.92;24.85;;;;;;;4.35;100.00;102199.81;5084705;28;20032;-76
2023/02/20 04:09:32;;;;;;;42.92;25.73;;;;;;;4.39;100.00;102210.44;5081731;28;20032;-76
2023/02/20 04:12:15;;;;;;;39.55;23.67;;;;;;;4.45;100.00;102219.50;5084550;28;20250;-81
2023/02/20 04:14:42;;;;;;;40.97;25.13;;;;;;;4.45;100.00;102216.00;5082138;28;20024;-81
2023/02/20 04:17:13;;;;;;;39.10;24.45;;;;;;;4.51;100.00;102222.44;5084435;28;20085;-80
2023/02/20 04:19:39;;;;;;;41.60;24.98;;;;;;;4.56;100.00;102234.84;5081817;28;20032;-80
2023/02/20 04:22:10;;;;;;;39.47;24.23;;;;;;;4.61;100.00;102231.66;5084732;28;20028;-82
2023/02/20 04:25:00;;;;;;;40.50;24.27;;;;;;;4.64;100.00;102234.41;5081156;28;20060;-75
2023/02/20 04:27:26;;;;;;;40.45;23.95;;;;;;;4.65;100.00;102227.47;5080510;28;20122;-80
2023/02/20 04:29:52;;;;;;;39.40;22.90;;;;;;;4.70;100.00;102231.22;5083334;28;20060;-80
2023/02/20 04:32:17;;;;;;;38.55;23.80;;;;;;;4.74;100.00;102234.91;5083118;28;20024;-82
2023/02/20 04:34:42;;;;;;;38.30;23.75;;;;;;;4.74;100.00;102233.19;5082077;28;20036;-80
2023/02/20 04:37:12;;;;;;;38.40;23.42;;;;;;;4.74;100.00;102233.19;5084165;28;20028;-80
2023/02/20 04:39:37;;;;;;;37.45;22.65;;;;;;;4.82;100.00;102229.22;5081294;28;20060;-79
2023/02/20 04:42:03;;;;;;;36.13;21.95;;;;;;;4.81;100.00;102237.91;5083667;28;20094;-75
2023/02/20 04:44:32;;;;;;;37.15;22.55;;;;;;;4.89;100.00;102240.91;5081364;28;20032;-83
2023/02/20 04:47:02;;;;;;;37.55;21.92;;;;;;;4.88;100.00;102234.78;5084316;28;20123;-82
2023/02/20 04:49:27;;;;;;;37.97;23.08;;;;;;;4.90;100.00;102229.59;5081308;28;20056;-81
2023/02/20 04:51:53;;;;;;;38.83;21.77;;;;;;;4.91;100.00;102240.97;5083192;28;20036;-82
2023/02/20 04:54:20;;;;;;;39.15;22.15;;;;;;;4.96;100.00;102237.75;5082707;28;20482;-78
2023/02/20 04:56:46;;;;;;;40.10;23.63;;;;;;;5.01;100.00;102235.34;5080821;28;20082;-80
2023/02/20 04:59:12;;;;;;;37.72;21.85;;;;;;;5.04;100.00;102231.19;5083370;28;20069;-83
2023/02/20 05:01:37;;;;;;;38.53;21.95;;;;;;;5.06;100.00;102233.88;5081357;28;20037;-83
2023/02/20 05:04:03;;;;;;;40.25;23.65;;;;;;;5.04;100.00;102239.03;5084498;28;20024;-75
2023/02/20 05:06:28;;;;;;;39.50;22.25;;;;;;;5.12;100.00;102235.91;5081070;28;20036;-76
2023/02/20 05:08:53;;;;;;;37.45;22.60;;;;;;;5.13;100.00;102228.13;5083208;28;20025;-76
2023/02/20 05:11:19;;;;;;;38.47;22.83;;;;;;;5.15;100.00;102229.06;5082100;28;20535;-75
2023/02/20 05:13:44;;;;;;;40.40;23.55;;;;;;;5.19;100.00;102231.03;5081986;28;20442;-78
2023/02/20 05:16:10;;;;;;;40.63;24.13;;;;;;;5.23;100.00;102238.22;5083324;28;20021;-76
2023/02/20 05:18:35;;;;;;;41.13;24.02;;;;;;;5.29;100.00;102239.34;5080440;28;20082;-80
2023/02/20 05:23:45;;;;;;;39.78;23.30;;;;;;;5.28;100.00;102237.53;5082086;28;20079;-76
2023/02/20 05:26:15;;;;;;;38.78;25.15;;;;;;;5.30;100.00;102238.50;5083239;28;20031;-75
2023/02/20 05:28:41;;;;;;;42.53;25.02;;;;;;;5.31;100.00;102228.09;5081038;28;20064;-75
2023/02/20 05:31:06;;;;;;;41.72;25.27;;;;;;;5.29;100.00;102226.25;5082823;28;20410;-77
2023/02/20 05:33:32;;;;;;;42.40;24.83;;;;;;;5.29;100.00;102244.59;5080348;28;20029;-75
2023/02/20 05:35:57;;;;;;;43.40;25.10;;;;;;;5.30;100.00;102239.44;5083292;28;20077;-79
2023/02/20 05:38:23;;;;;;;43.55;25.92;;;;;;;5.32;100.00;102231.63;5080282;28;20035;-80
2023/02/20 05:40:48;;;;;;;42.85;25.52;;;;;;;5.35;100.00;102237.91;5081903;28;20106;-75
2023/02/20 05:43:16;;;;;;;40.28;24.13;;;;;;;5.40;100.00;102232.88;5082708;28;20035;-77
2023/02/20 05:45:41;;;;;;;41.25;24.80;;;;;;;5.40;100.00;102249.53;5081111;28;20052;-78
2023/02/20 05:48:07;;;;;;;41.78;25.38;;;;;;;5.42;100.00;102244.34;5083656;28;20067;-75
2023/02/20 05:50:32;;;;;;;42.28;24.92;;;;;;;5.42;100.00;102231.25;5080371;28;20040;-81
2023/02/20 05:52:57;;;;;;;43.67;26.27;;;;;;;5.45;100.00;102236.63;5083661;28;20035;-81
2023/02/20 05:55:23;;;;;;;43.40;25.75;;;;;;;5.46;100.00;102235.81;5085161;28;20560;-78
2023/02/20 05:57:48;;;;;;;42.63;26.05;;;;;;;5.53;100.00;102235.28;5085405;28;20538;-74
2023/02/20 06:00:14;;;;;;;41.97;24.58;;;;;;;5.47;100.00;102229.72;5086615;28;20028;-81
2023/02/20 06:02:39;;;;;;;42.38;26.50;;;;;;;5.51;100.00;102234.28;5084273;28;20035;-79
2023/02/20 06:05:06;;;;;;;43.17;26.67;;;;;;;5.51;100.00;102244.78;5087397;28;20458;-75
2023/02/20 06:07:32;;;;;;;45.70;27.48;;;;;;;5.49;100.00;102242.91;5086855;28;20044;-80
2023/02/20 06:09:58;;;;;;;41.47;27.02;;;;;;;5.50;100.00;102242.09;5086524;28;20157;-80
2023/02/20 06:12:23;;;;;;;45.35;28.33;;;;;;;5.53;100.00;102242.22;5085020;28;20031;-82
2023/02/20 06:14:48;;;;;;;42.75;27.13;;;;;;;5.54;100.00;102239.69;5085301;28;20037;-77
2023/02/20 06:17:14;;;;;;;43.78;27.15;;;;;;;5.54;100.00;102252.78;5086201;28;20028;-80
2023/02/20 06:19:39;;;;;;;43.78;26.13;;;;;;;5.55;100.00;102238.88;5084386;28;20467;-77
2023/02/20 06:22:05;;;;;;;41.88;26.50;;;;;;;5.55;100.00;102245.84;5087152;28;20105;-82
2023/02/20 06:24:30;;;;;;;42.28;25.75;;;;;;;5.55;100.00;102240.59;5083607;28;20024;-78
2023/02/20 06:26:56;;;;;;;42.83;26.50;;;;;;;5.55;100.00;102238.88;5086133;28;20025;-82
2023/02/20 06:29:22;;;;;;;43.35;26.17;;;;;;;5.54;100.00;102239.69;5084845;28;20024;-82
2023/02/20 06:31:47;;;;;;;41.72;26.00;;;;;;;5.57;100.00;102246.81;5085238;28;20519;-81
2023/02/20 06:34:13;;;;;;;43.83;26.48;;;;;;;5.59;100.00;102256.53;5086194;28;20028;-80
2023/02/20 06:36:40;;;;;;;42.35;27.05;;;;;;;5.59;100.00;102243.44;5083414;28;20035;-81
2023/02/20 06:39:07;;;;;;;40.05;25.13;;;;;;;5.61;100.00;102246.13;5086548;28;20028;-80
2023/02/20 06:41:32;;;;;;;42.08;25.70;;;;;;;5.57;100.00;102239.81;5083404;28;20070;-77
2023/02/20 06:43:58;;;;;;;41.75;24.08;;;;;;;5.61;100.00;102245.19;5086100;28;20115;-75
2023/02/20 06:46:23;;;;;;;43.15;25.20;;;;;;;5.64;100.00;102245.38;5086878;28;20039;-73
2023/02/20 06:48:54;;;;;;;40.92;25.02;;;;;;;5.62;100.00;102241.75;5093355;28;20457;-75
2023/02/20 06:51:22;;;;;;;41.20;25.80;;;;;;;5.59;100.00;102239.88;5093371;28;20040;-74
2023/02/20 06:53:48;;;;;;;42.17;26.50;;;;;;;5.57;100.00;102229.31;5093678;28;20442;-73
2023/02/20 06:56:18;;;;;;;45.28;25.95;;;;;;;5.62;100.00;102231.28;5093903;28;20386;-72
2023/02/20 06:58:49;;;;;;;41.53;25.20;;;;;;;5.64;100.00;102232.25;5092992;28;20044;-77
2023/02/20 07:01:20;;;;;;;42.88;25.92;;;;;;;5.65;100.00;102240.19;5090628;28;20139;-73
2023/02/20 07:03:47;;;;;;;41.70;25.73;;;;;;;5.69;100.00;102249.09;5093647;28;20036;-73
2023/02/20 07:06:13;;;;;;;40.83;25.35;;;;;;;5.72;100.00;102244.00;5092666;28;20027;-73
2023/02/20 07:08:39;;;;;;;40.50;24.35;;;;;;;5.71;100.00;102255.34;5092787;28;20036;-74
2023/02/20 07:11:05;;;;;;;43.20;25.58;;;;;;;5.74;100.00;102258.09;5093421;28;20467;-74
2023/02/20 07:13:30;;;;;;;41.65;26.48;;;;;;;5.75;100.00;102263.41;5093528;28;20066;-73
2023/02/20 07:15:55;;;;;;;43.33;25.65;;;;;;;5.77;100.00;102255.63;5093266;28;20390;-73
2023/02/20 07:18:22;;;;;;;42.42;26.65;;;;;;;5.74;100.00;102253.75;5092513;28;20035;-74
2023/02/20 07:20:50;;;;;;;42.70;26.95;;;;;;;5.74;100.00;102258.97;5093218;28;20035;-73
2023/02/20 07:23:15;;;;;;;43.55;27.52;;;;;;;5.76;100.00;102259.06;5091248;28;20028;-75
2023/02/20 07:25:40;;;;;;;42.38;26.20;;;;;;;5.77;100.00;102263.50;5093322;28;20040;-74
2023/02/20 07:28:07;;;;;;;41.30;25.92;;;;;;;5.78;100.00;102252.13;5092704;28;20024;-73
2023/02/20 07:30:32;;;;;;;42.55;25.08;;;;;;;5.79;100.00;102250.44;5092178;28;20032;-76
2023/02/20 07:32:58;;;;;;;43.25;25.48;;;;;;;5.75;100.00;102244.13;5092665;28;20032;-75
2023/02/20 07:35:23;;;;;;;41.85;26.50;;;;;;;5.71;100.00;102237.84;5091568;28;20047;-74
2023/02/20 07:37:48;;;;;;;40.38;24.13;;;;;;;5.86;100.00;102244.66;5091245;28;20038;-75
2023/02/20 07:40:14;;;;;;;41.55;24.63;;;;;;;5.84;100.00;102244.56;5092557;28;20122;-74
2023/02/20 07:42:39;;;;;;;39.97;23.77;;;;;;;5.83;100.00;102240.13;5082740;28;20097;-75
2023/02/20 07:45:05;;;;;;;40.40;24.17;;;;;;;5.85;100.00;102248.97;5082874;28;20511;-75
2023/02/20 07:47:30;;;;;;;40.60;25.05;;;;;;;5.84;100.00;102249.81;5081311;28;20375;-75
2023/02/20 07:49:55;;;;;;;41.20;24.92;;;;;;;5.90;100.00;102252.72;5083704;28;20024;-74
2023/02/20 07:52:21;;;;;;;39.63;24.58;;;;;;;5.88;100.00;102246.53;5071884;28;20120;-76
2023/02/20 07:54:46;;;;;;;40.08;25.02;;;;;;;5.91;100.00;102240.47;5063826;28;20063;-75
2023/02/20 07:57:14;;;;;;;42.15;26.00;;;;;;;5.94;100.00;102241.53;5082797;28;20483;-77
2023/02/20 07:59:39;;;;;;;42.85;25.42;;;;;;;5.92;100.00;102232.69;5081989;28;20032;-75
2023/02/20 08:02:05;;;;;;;40.17;22.33;;;;;;;5.98;100.00;102239.09;5083701;28;20046;-75
2023/02/20 08:04:30;;;;;;;40.85;25.42;;;;;;;6.00;100.00;102240.03;5082534;28;20077;-73
2023/02/20 08:06:56;;;;;;;38.97;25.10;;;;;;;6.02;100.00;102241.03;5080393;28;20098;-75
2023/02/20 08:09:21;;;;;;;41.53;24.73;;;;;;;6.04;100.00;102241.97;5084083;28;20020;-73
2023/02/20 08:11:46;;;;;;;41.67;24.65;;;;;;;6.05;100.00;102238.53;5081508;28;20027;-75
2023/02/20 08:14:13;;;;;;;38.83;22.52;;;;;;;6.13;100.00;102247.66;5082680;28;20452;-73
2023/02/20 08:16:38;;;;;;;37.95;23.85;;;;;;;6.12;100.00;102240.59;5080880;28;20480;-73
2023/02/20 08:19:04;;;;;;;39.85;24.70;;;;;;;6.14;100.00;102238.03;5083729;28;20080;-72
2023/02/20 08:21:29;;;;;;;37.75;24.08;;;;;;;6.20;100.00;102247.06;5085591;28;20024;-76
2023/02/20 08:23:54;;;;;;;36.30;22.58;;;;;;;6.21;100.00;102254.13;5083580;28;20036;-74
2023/02/20 08:26:20;;;;;;;38.35;23.42;;;;;;;6.24;100.00;102245.50;5087064;28;20032;-75
2023/02/20 08:28:47;;;;;;;38.72;23.25;;;;;;;6.24;100.00;102249.00;5083189;28;20091;-75
2023/02/20 08:31:12;;;;;;;38.88;23.60;;;;;;;6.26;100.00;102247.38;5080951;28;20077;-74
2023/02/20 08:33:38;;;;;;;39.95;24.52;;;;;;;6.27;100.00;102236.00;5084347;28;20020;-76
2023/02/20 08:36:04;;;;;;;38.72;22.42;;;;;;;6.28;100.00;102236.94;5084318;28;20166;-75
2023/02/20 08:38:35;;;;;;;40.58;23.88;;;;;;;6.31;100.00;102239.69;5082352;28;20081;-76
2023/02/20 08:41:06;;;;;;;39.05;23.33;;;;;;;6.34;100.00;102239.81;5080948;28;20063;-74
2023/02/20 08:43:33;;;;;;;38.72;23.92;;;;;;;6.37;100.00;102236.44;5083597;28;20367;-75
2023/02/20 08:45:59;;;;;;;39.97;23.23;;;;;;;6.41;100.00;102230.50;5078917;28;20016;-76
2023/02/20 08:48:24;;;;;;;40.72;24.63;;;;;;;6.43;100.00;102228.81;5081895;28;20032;-74
2023/02/20 08:50:50;;;;;;;39.38;23.33;;;;;;;6.49;100.00;102230.81;5083479;28;20016;-77
2023/02/20 08:53:16;;;;;;;39.75;24.60;;;;;;;6.47;100.00;102236.00;5082793;28;20032;-75
2023/02/20 08:55:42;;;;;;;39.88;24.85;;;;;;;6.44;100.00;102217.50;5081162;28;20020;-75
2023/02/20 08:58:07;;;;;;;40.25;24.80;;;;;;;6.51;100.00;102227.44;5082543;28;20458;-75
2023/02/20 09:00:32;;;;;;;39.88;23.70;;;;;;;6.52;100.00;102229.22;5081941;28;20040;-75
2023/02/20 09:02:58;;;;;;;39.25;24.50;;;;;;;6.51;100.00;102232.69;5081650;28;20028;-75
2023/02/20 09:05:25;;;;;;;40.15;25.10;;;;;;;6.55;100.00;102244.22;5083878;28;20028;-75
2023/02/20 09:07:50;;;;;;;39.58;24.48;;;;;;;6.56;100.00;102241.66;5080574;28;20047;-75
2023/02/20 09:10:19;;;;;;;38.17;24.30;;;;;;;6.61;100.00;102241.84;5080559;28;20028;-74
2023/02/20 09:12:45;;;;;;;41.35;25.13;;;;;;;6.63;100.00;102241.06;5082897;28;20463;-75
2023/02/20 09:15:11;;;;;;;42.92;26.27;;;;;;;6.63;100.00;102227.06;5079951;28;20043;-77
2023/02/20 09:17:38;;;;;;;40.38;25.35;;;;;;;6.67;100.00;102241.22;5082682;28;20120;-75
2023/02/20 09:20:08;;;;;;;39.67;24.45;;;;;;;6.66;100.00;102247.31;5082337;28;20024;-79
2023/02/20 09:22:34;;;;;;;39.95;24.27;;;;;;;6.64;100.00;102234.13;5082264;28;20033;-78
2023/02/20 09:24:59;;;;;;;40.65;26.35;;;;;;;6.68;100.00;102243.00;5082803;28;20388;-78
2023/02/20 09:27:25;;;;;;;39.63;25.20;;;;;;;6.66;100.00;102231.56;5081145;28;20033;-76
2023/02/20 09:29:50;;;;;;;40.42;25.48;;;;;;;6.66;100.00;102228.94;5087255;28;20032;-75
2023/02/20 09:32:15;;;;;;;40.63;25.08;;;;;;;6.69;100.00;102229.94;5084516;28;20471;-79
2023/02/20 09:34:41;;;;;;;41.92;25.65;;;;;;;6.67;100.00;102225.44;5087137;28;20040;-80
2023/02/20 09:37:07;;;;;;;41.83;25.50;;;;;;;6.73;100.00;102231.88;5085528;28;20497;-78
2023/02/20 09:39:32;;;;;;;41.75;26.58;;;;;;;6.77;100.00;102215.41;5085716;28;20032;-78
2023/02/20 09:42:00;;;;;;;42.15;25.55;;;;;;;6.80;100.00;102220.78;5086568;28;20028;-77
2023/02/20 09:44:41;;;;;;;41.00;25.80;;;;;;;6.84;100.00;102220.91;5083498;28;20028;-81
2023/02/20 09:47:20;;;;;;;43.65;26.13;;;;;;;6.82;100.00;102226.09;5085376;28;20031;-79
2023/02/20 09:49:46;;;;;;;41.90;25.48;;;;;;;6.83;100.00;102238.41;5087386;28;20064;-79
2023/02/20 09:52:14;;;;;;;41.95;26.40;;;;;;;6.81;100.00;102229.56;5084711;28;20040;-78
2023/02/20 09:54:49;;;;;;;41.33;26.10;;;;;;;6.85;100.00;102223.59;5085322;28;20029;-77
2023/02/20 09:57:25;;;;;;;40.53;25.40;;;;;;;6.87;100.00;102216.66;5083897;28;20036;-79
2023/02/20 10:00:08;;;;;;;41.03;25.58;;;;;;;6.90;100.00;102211.56;5086560;28;20055;-78
2023/02/20 10:02:36;;;;;;;;;;;;;;;6.98;100.00;102204.84;5083840;28;20101;-79
2023/02/20 10:05:08;;;;;;;42.58;25.58;;;;;;;6.97;100.00;102204.78;5085671;28;20351;-79
2023/02/20 10:07:39;;;;;;;40.70;25.55;;;;;;;6.97;100.00;102196.91;5084667;28;20032;-76
2023/02/20 10:10:19;;;;;;;42.38;26.15;;;;;;;6.97;100.00;102203.09;5085001;28;20016;-75
2023/02/20 10:12:55;;;;;;;40.40;26.70;;;;;;;6.97;100.00;102210.97;5086391;28;20031;-75
2023/02/20 10:15:49;;;;;;;41.33;27.38;;;;;;;7.00;100.00;102214.53;5083513;28;20491;-75
2023/02/20 10:18:33;;;;;;;41.97;26.88;;;;;;;7.03;100.00;102222.56;5086660;28;20020;-76
2023/02/20 10:21:10;;;;;;;42.72;26.60;;;;;;;7.06;100.00;102230.56;5084144;28;20468;-77
2023/02/20 10:23:47;;;;;;;37.03;24.15;;;;;;;7.08;100.00;102227.16;5085231;28;20476;-77
2023/02/20 10:26:19;;;;;;;39.97;26.50;;;;;;;7.08;100.00;102216.66;5086245;28;20097;-75
2023/02/20 10:28:48;;;;;;;41.95;25.92;;;;;;;7.11;100.00;102236.94;5083748;28;20036;-77
2023/02/20 10:31:36;;;;;;;41.33;27.05;;;;;;;7.08;100.00;102239.44;5086092;28;20031;-76
2023/02/20 10:34:11;;;;;;;43.38;27.48;;;;;;;7.09;100.00;102230.69;5084360;28;20364;-76
2023/02/20 10:36:44;;;;;;;41.20;26.60;;;;;;;7.13;100.00;102243.13;5084599;28;20086;-76
2023/02/20 10:39:12;;;;;;;;;;;;;;;7.21;100.00;102256.59;5085497;28;20032;-75
2023/02/20 10:41:41;;;;;;;41.42;26.60;;;;;;;7.11;100.00;102234.28;5083810;28;19912;-76
2023/02/20 10:44:18;;;;;;;43.20;27.60;;;;;;;7.08;100.00;102247.31;5083566;28;20063;-76
2023/02/20 10:46:57;;;;;;;42.25;26.40;;;;;;;7.09;100.00;102251.72;5083570;28;20043;-76
2023/02/20 10:49:57;;;;;;;44.35;28.08;;;;;;;7.09;100.00;102230.69;5082844;28;20033;-75
2023/02/20 10:52:45;;;;;;;40.85;25.45;;;;;;;7.06;100.00;102226.22;5082809;28;20033;-75
2023/02/20 10:55:19;;;;;;;42.20;25.95;;;;;;;7.06;100.00;102236.75;5084838;28;20033;-77
2023/02/20 10:57:57;;;;;;;41.70;28.30;;;;;;;7.09;100.00;102225.44;5082871;28;20033;-75
2023/02/20 11:00:31;;;;;;;44.28;28.80;;;;;;;7.07;100.00;102227.09;5082346;28;20434;-75
2023/02/20 11:03:23;;;;;;;44.03;27.67;;;;;;;7.05;100.00;102218.25;5083012;28;20066;-75
2023/02/20 11:05:54;;;;;;;44.00;27.80;;;;;;;7.12;100.00;102215.03;5082632;28;20028;-75
2023/02/20 11:08:20;;;;;;;45.67;30.13;;;;;;;7.07;100.00;102213.97;5082529;28;20502;-75
2023/02/20 11:10:56;;;;;;;43.05;28.15;;;;;;;7.08;100.00;102234.16;5084136;28;20067;-75
2023/02/20 11:13:24;;;;;;;44.50;28.63;;;;;;;7.06;100.00;102234.13;5082272;28;20028;-75
2023/02/20 11:15:54;;;;;;;46.92;29.10;;;;;;;7.05;100.00;102224.41;5082530;28;20020;-78
2023/02/20 11:18:25;;;;;;;45.20;29.77;;;;;;;7.06;100.00;102220.97;5082405;28;20033;-77
2023/02/20 11:20:52;;;;;;;45.30;29.35;;;;;;;7.10;100.00;102229.84;5082323;28;20394;-78
2023/02/20 11:23:44;;;;;;;45.58;29.10;;;;;;;7.09;100.00;102218.44;5085571;28;20028;-77
2023/02/20 11:26:30;;;;;;;46.85;30.55;;;;;;;7.09;100.00;102225.44;5082338;28;20495;-78
2023/02/20 11:29:15;;;;;;;46.75;31.27;;;;;;;7.09;100.00;102228.06;5082308;28;20058;-78
2023/02/20 11:31:42;;;;;;;48.72;31.83;;;;;;;7.09;100.00;102226.34;5083140;28;20032;-79
2023/02/20 11:34:15;;;;;;;48.00;31.15;;;;;;;7.13;100.00;102225.59;5084043;28;20483;-76
2023/02/20 11:36:45;;;;;;;48.78;32.83;;;;;;;7.10;100.00;102224.59;5081816;28;20027;-78